Time;durP1;ratioP1;P1;durP2;ratioP2;P2;SDS_P1;SDS_P2;PMS_P1;PMS_P2;Temp;Humidity;BMP_temperature;BMP_pressure;BME280_temperature;BME280_humidity;BME280_pressure;Samples;Min_cycle;Max_cycle;Signal;HPM_P1;HPM_P2
2022/04/30 00:03:38;;;;;;;32.50;19.70;;;;;;;3.09;67.89;100748.20;213902;1274;145345;-71
2022/04/30 00:08:41;;;;;;;40.50;17.50;;;;;;;2.96;68.36;100751.14;213240;1274;141513;-68
2022/04/30 00:13:43;;;;;;;29.60;17.70;;;;;;;2.88;68.73;100748.11;214090;1274;142089;-63
2022/04/30 00:18:47;;;;;;;30.90;17.50;;;;;;;2.87;68.84;100751.86;213507;1274;141684;-65
2022/04/30 00:23:49;;;;;;;41.00;20.70;;;;;;;2.79;68.89;100751.64;213490;1274;141539;-64
2022/04/30 00:28:52;;;;;;;29.90;18.10;;;;;;;2.73;68.80;100752.02;214725;1274;143896;-65
2022/04/30 00:34:01;;;;;;;39.80;21.30;;;;;;;2.64;69.04;100756.59;213505;1274;141349;-67
2022/04/30 00:39:04;;;;;;;37.80;20.60;;;;;;;2.63;69.71;100763.72;213244;1274;140611;-66
2022/04/30 00:44:06;;;;;;;43.10;20.90;;;;;;;2.57;69.27;100761.00;214079;1273;141323;-63
2022/04/30 00:49:09;;;;;;;35.70;20.50;;;;;;;2.56;70.02;100758.65;214042;1274;140774;-64
2022/04/30 00:54:13;;;;;;;35.90;19.20;;;;;;;2.53;70.05;100755.97;213809;1274;140379;-64
2022/04/30 00:59:17;;;;;;;31.20;18.70;;;;;;;2.43;69.36;100750.91;214407;1274;141067;-65
2022/04/30 01:04:19;;;;;;;30.40;16.60;;;;;;;2.34;70.12;100750.50;215166;1274;140776;-66
2022/04/30 01:09:24;;;;;;;34.10;17.10;;;;;;;2.27;69.89;100747.79;214890;1274;140648;-64
2022/04/30 01:14:29;;;;;;;33.80;19.60;;;;;;;2.15;70.28;100749.01;213947;1274;141361;-65
2022/04/30 01:19:36;;;;;;;39.40;21.30;;;;;;;2.07;70.25;100745.12;214992;1274;141154;-65
2022/04/30 01:24:40;;;;;;;36.80;21.50;;;;;;;2.12;70.95;100742.52;215558;1274;141822;-65
2022/04/30 01:29:44;;;;;;;38.60;24.90;;;;;;;2.12;70.34;100743.94;214491;1274;141866;-66
2022/04/30 01:40:12;;;;;;;34.70;21.40;;;;;;;2.02;70.77;100741.01;212924;1274;142204;-63
2022/04/30 01:45:18;;;;;;;33.50;19.90;;;;;;;1.99;70.86;100739.02;214027;1274;141748;-63
2022/04/30 01:50:23;;;;;;;38.20;20.00;;;;;;;1.98;71.09;100741.09;214963;1274;140461;-64
2022/04/30 01:55:26;;;;;;;40.00;21.50;;;;;;;2.02;71.30;100740.51;213981;1274;140703;-65
2022/04/30 02:00:28;;;;;;;34.50;17.40;;;;;;;1.97;71.08;100739.29;214664;1274;142155;-66
2022/04/30 02:05:31;;;;;;;26.10;14.30;;;;;;;1.84;70.98;100735.16;213042;1274;141675;-64
2022/04/30 02:10:39;;;;;;;25.70;16.60;;;;;;;1.72;71.02;100733.04;213952;1274;140035;-66
2022/04/30 02:15:45;;;;;;;29.10;16.80;;;;;;;1.66;71.21;100733.29;214238;1274;141216;-66
2022/04/30 02:20:50;;;;;;;26.60;18.10;;;;;;;1.62;71.75;100728.34;213302;1274;140097;-63
2022/04/30 02:25:54;;;;;;;38.60;21.20;;;;;;;1.58;71.66;100725.41;213255;1274;141236;-68
2022/04/30 02:30:57;;;;;;;30.80;20.00;;;;;;;1.58;71.73;100722.98;214512;1274;140096;-62
2022/04/30 02:36:01;;;;;;;30.30;17.70;;;;;;;1.59;71.95;100719.42;213420;1274;140564;-62
2022/04/30 02:41:04;;;;;;;36.80;21.70;;;;;;;1.50;71.79;100715.10;214358;1274;141143;-63
2022/04/30 02:46:13;;;;;;;41.40;26.20;;;;;;;1.37;71.90;100706.76;214493;1274;140559;-66
2022/04/30 02:51:16;;;;;;;39.30;23.20;;;;;;;1.29;72.17;100710.98;214818;1274;141624;-68
2022/04/30 02:56:19;;;;;;;41.50;23.00;;;;;;;1.32;72.33;100709.10;214227;1274;141369;-63
2022/04/30 03:01:23;;;;;;;39.70;24.40;;;;;;;1.34;72.17;100705.48;214148;1274;141896;-66
2022/04/30 03:06:26;;;;;;;39.20;22.40;;;;;;;1.30;72.32;100706.16;215362;1274;140879;-69
2022/04/30 03:11:28;;;;;;;44.00;25.10;;;;;;;1.25;72.14;100704.94;215044;1274;141159;-69
2022/04/30 03:21:53;;;;;;;49.70;28.40;;;;;;;1.23;72.65;100706.92;216048;1274;142749;-69
2022/04/30 03:26:55;;;;;;;48.20;27.70;;;;;;;1.32;72.45;100709.63;214936;1274;141561;-68
2022/04/30 03:31:58;;;;;;;37.30;24.50;;;;;;;1.45;72.67;100706.52;215812;1274;142452;-66
2022/04/30 03:37:00;;;;;;;41.80;27.50;;;;;;;1.64;72.04;100702.82;215202;1274;143023;-68
2022/04/30 03:42:04;;;;;;;45.40;28.70;;;;;;;2.08;72.02;100701.88;214577;1274;140694;-66
2022/04/30 03:47:06;;;;;;;42.80;26.30;;;;;;;2.51;71.68;100702.24;214107;1274;141979;-68
2022/04/30 03:52:10;;;;;;;49.50;29.00;;;;;;;3.04;71.38;100696.69;214543;1276;141863;-70
2022/04/30 03:57:12;;;;;;;44.80;27.20;;;;;;;4.10;70.55;100695.39;213345;1274;142486;-67
2022/04/30 04:02:14;;;;;;;52.80;30.70;;;;;;;5.19;70.18;100696.20;214119;1273;162776;-67
2022/04/30 04:07:17;;;;;;;43.80;26.90;;;;;;;5.93;69.54;100693.91;213897;1274;141201;-67
2022/04/30 04:12:19;;;;;;;43.10;25.00;;;;;;;6.09;68.90;100701.20;213229;1274;142054;-65
2022/04/30 04:17:38;;;;;;;44.30;27.80;;;;;;;5.95;67.79;100705.53;214771;1274;140320;-69
2022/04/30 04:22:41;;;;;;;40.30;23.20;;;;;;;5.81;67.32;100714.05;213630;1274;140812;-68
2022/04/30 04:27:43;;;;;;;32.50;20.20;;;;;;;6.16;67.77;100713.59;214255;1274;140130;-69
2022/04/30 04:32:47;;;;;;;41.70;23.90;;;;;;;6.42;67.36;100715.70;214083;1274;142796;-69
2022/04/30 04:37:50;;;;;;;33.60;22.20;;;;;;;6.61;66.76;100720.55;213542;1274;140385;-66
2022/04/30 04:42:52;;;;;;;42.60;25.70;;;;;;;6.38;66.94;100717.30;213319;1274;140376;-68
2022/04/30 04:47:56;;;;;;;39.20;30.90;;;;;;;6.35;67.46;100714.84;214276;1276;140572;-68
2022/04/30 04:52:58;;;;;;;49.00;33.30;;;;;;;6.50;67.53;100713.68;213744;1276;140871;-67
2022/04/30 04:58:01;;;;;;;44.00;29.30;;;;;;;6.71;67.84;100715.17;214398;1274;140184;-68
2022/04/30 05:03:04;;;;;;;45.60;29.30;;;;;;;7.02;67.96;100712.30;213515;1274;143545;-68
2022/04/30 05:08:07;;;;;;;46.10;28.80;;;;;;;7.56;68.20;100711.46;214710;1274;140995;-68
2022/04/30 05:13:10;;;;;;;42.50;26.30;;;;;;;8.79;67.25;100709.34;215690;1274;140635;-69
2022/04/30 05:18:13;;;;;;;34.10;24.40;;;;;;;10.13;65.62;100709.53;216088;1274;142065;-69
2022/04/30 05:23:15;;;;;;;38.20;21.50;;;;;;;11.03;64.76;100706.14;215612;1272;153087;-69
2022/04/30 05:28:20;;;;;;;33.00;22.40;;;;;;;12.04;63.22;100698.55;214964;1274;140756;-67
2022/04/30 05:33:23;;;;;;;36.80;24.20;;;;;;;13.81;60.86;100697.81;214629;1274;141556;-67
2022/04/30 05:38:27;;;;;;;32.90;23.90;;;;;;;14.38;60.06;100692.31;214248;1274;140569;-68
2022/04/30 05:43:30;;;;;;;36.80;24.90;;;;;;;14.68;58.70;100685.91;214149;1274;142241;-68
2022/04/30 05:48:33;;;;;;;29.20;18.90;;;;;;;15.13;57.38;100689.55;215172;1274;140702;-68
2022/04/30 05:53:37;;;;;;;20.00;16.80;;;;;;;14.92;56.61;100694.95;214931;1274;140518;-68
2022/04/30 05:58:39;;;;;;;31.90;19.00;;;;;;;14.70;56.29;100696.40;215089;1274;140582;-68
2022/04/30 06:03:41;;;;;;;24.80;17.40;;;;;;;14.57;56.08;100703.66;213561;1274;141497;-67
2022/04/30 06:08:43;;;;;;;26.20;17.10;;;;;;;14.46;55.86;100699.71;214272;1274;142051;-68
2022/04/30 06:13:45;;;;;;;28.40;20.80;;;;;;;14.34;55.75;100702.46;214259;1273;140851;-68
2022/04/30 06:18:48;;;;;;;32.00;18.10;;;;;;;14.32;55.54;100702.68;213580;1274;140931;-67
2022/04/30 06:24:10;;;;;;;23.70;16.80;;;;;;;14.38;55.58;100699.16;213057;1275;140511;-67
2022/04/30 06:29:12;;;;;;;25.00;15.80;;;;;;;14.49;55.24;100695.44;213885;1274;140836;-68
2022/04/30 06:34:15;;;;;;;22.20;15.10;;;;;;;14.30;54.51;100696.04;215171;1274;140170;-68
2022/04/30 06:39:17;;;;;;;19.60;15.30;;;;;;;14.51;55.07;100697.89;214649;1274;140671;-68
2022/04/30 06:44:19;;;;;;;18.00;14.40;;;;;;;14.74;54.86;100699.95;214732;1274;141038;-68
2022/04/30 06:49:23;;;;;;;20.00;12.90;;;;;;;15.20;54.48;100705.83;213512;1274;141423;-68
2022/04/30 06:59:51;;;;;;;15.60;10.30;;;;;;;16.53;52.43;100687.43;215746;1273;141403;-68
2022/04/30 07:04:54;;;;;;;13.20;10.20;;;;;;;17.65;51.23;100681.06;214793;1272;140112;-69
2022/04/30 07:09:56;;;;;;;13.90;10.40;;;;;;;18.55;49.56;100675.57;216091;1274;141363;-70
2022/04/30 07:14:59;;;;;;;16.20;10.00;;;;;;;19.11;48.75;100677.52;216052;1274;141059;-70
2022/04/30 07:20:02;;;;;;;18.30;8.90;;;;;;;19.17;47.14;100680.23;216129;1274;140265;-69
2022/04/30 07:25:08;;;;;;;6.80;5.20;;;;;;;19.66;46.28;100679.46;215234;1274;161726;-69
2022/04/30 07:30:14;;;;;;;6.20;3.80;;;;;;;20.17;45.02;100683.37;215677;1274;139845;-65
2022/04/30 07:35:20;;;;;;;6.20;4.40;;;;;;;20.03;43.38;100684.02;214453;1274;139847;-68
2022/04/30 07:40:24;;;;;;;5.80;5.30;;;;;;;19.75;42.53;100686.87;214483;1274;140977;-68
2022/04/30 07:45:27;;;;;;;7.00;3.40;;;;;;;19.63;42.11;100687.04;214569;1274;159511;-68
2022/04/30 07:50:35;;;;;;;3.50;2.90;;;;;;;19.54;41.11;100684.73;214490;1274;445680;-68
2022/04/30 07:55:39;;;;;;;3.70;2.20;;;;;;;19.43;40.41;100681.60;214540;1273;139387;-69
2022/04/30 08:00:41;;;;;;;2.90;2.70;;;;;;;19.36;40.15;100679.10;213735;1274;140334;-70
2022/04/30 08:05:44;;;;;;;6.20;2.90;;;;;;;19.31;39.93;100682.77;214034;1275;140592;-69
2022/04/30 08:10:46;;;;;;;3.20;1.80;;;;;;;19.25;39.40;100684.08;213744;1276;139977;-68
2022/04/30 08:15:48;;;;;;;2.40;1.90;;;;;;;19.38;39.19;100688.23;213325;1275;141099;-70
2022/04/30 08:20:50;;;;;;;2.50;2.30;;;;;;;19.57;39.32;100679.46;213741;1274;141561;-70
2022/04/30 08:25:53;;;;;;;6.50;2.30;;;;;;;19.56;38.16;100685.09;214208;1275;139663;-69
2022/04/30 08:30:57;;;;;;;3.60;2.20;;;;;;;19.66;38.30;100679.13;213731;1274;140561;-71
2022/04/30 08:36:02;;;;;;;4.80;2.00;;;;;;;19.64;37.59;100682.86;213965;1275;141403;-69
2022/04/30 08:41:09;;;;;;;4.10;2.10;;;;;;;19.40;37.52;100684.09;213210;1276;140605;-70
2022/04/30 08:46:13;;;;;;;3.80;2.70;;;;;;;19.53;37.99;100681.90;214751;1274;142449;-69
2022/04/30 08:51:17;;;;;;;8.90;2.70;;;;;;;19.68;36.83;100681.14;213967;1275;139969;-69
2022/04/30 08:56:19;;;;;;;2.10;1.90;;;;;;;19.78;36.44;100679.13;214630;1274;140288;-70
2022/04/30 09:01:22;;;;;;;2.30;1.90;;;;;;;19.88;36.11;100682.41;215504;1274;141970;-69
2022/04/30 09:06:26;;;;;;;2.40;2.00;;;;;;;19.72;35.24;100682.00;215842;1274;140220;-70
2022/04/30 09:11:29;;;;;;;1.50;1.40;;;;;;;19.70;35.05;100677.35;215868;1274;140940;-70
2022/04/30 09:16:38;;;;;;;4.30;1.80;;;;;;;19.76;36.11;100675.55;215475;1276;145338;-66
2022/04/30 09:21:48;;;;;;;2.40;2.20;;;;;;;20.18;35.55;100674.27;215406;1274;140396;-70
2022/04/30 09:26:52;;;;;;;3.70;3.30;;;;;;;20.51;35.47;100670.71;214121;1274;139786;-70
2022/04/30 09:31:56;;;;;;;5.20;2.60;;;;;;;20.33;34.98;100667.35;213546;1276;140110;-69
2022/04/30 09:42:22;;;;;;;3.20;2.50;;;;;;;19.52;34.39;100660.20;214100;1274;140626;-69
2022/04/30 09:47:26;;;;;;;4.20;3.10;;;;;;;19.42;34.14;100661.48;213315;1274;140799;-70
2022/04/30 09:57:52;;;;;;;3.80;2.20;;;;;;;19.48;34.67;100656.03;213775;1274;140418;-69
2022/04/30 10:03:00;;;;;;;5.30;2.40;;;;;;;19.68;34.02;100650.62;213522;1274;140604;-69
2022/04/30 10:08:05;;;;;;;2.00;1.60;;;;;;;19.64;33.73;100646.73;213868;1274;150124;-69
2022/04/30 10:13:21;;;;;;;2.80;2.20;;;;;;;19.54;33.45;100640.65;213574;1274;140137;-69
2022/04/30 10:18:42;;;;;;;8.90;2.30;;;;;;;19.55;33.46;100636.74;213752;1274;140515;-69
2022/04/30 10:23:45;;;;;;;3.30;2.00;;;;;;;19.53;33.07;100634.48;214073;1274;139524;-69
2022/04/30 10:28:58;;;;;;;5.20;2.80;;;;;;;19.59;32.95;100638.35;214804;1274;142856;-70
2022/04/30 10:34:01;;;;;;;3.30;2.10;;;;;;;19.65;32.67;100636.34;214202;1276;220505;-70
2022/04/30 10:39:09;;;;;;;2.90;2.30;;;;;;;19.64;33.00;100632.45;214641;1275;139722;-69
2022/04/30 10:44:13;;;;;;;2.90;2.70;;;;;;;19.42;33.42;100628.83;213628;1276;139737;-69
2022/04/30 10:49:16;;;;;;;2.90;2.20;;;;;;;19.39;33.87;100624.66;214807;1276;140932;-70
2022/04/30 10:54:21;;;;;;;3.70;2.20;;;;;;;19.17;33.52;100628.45;215611;1274;140102;-70
2022/04/30 10:59:26;;;;;;;1.50;1.40;;;;;;;19.06;33.84;100625.03;214474;1274;140026;-67
2022/04/30 11:04:30;;;;;;;2.80;2.00;;;;;;;19.04;33.30;100620.43;215927;1275;140458;-72
2022/04/30 11:09:47;;;;;;;2.10;1.90;;;;;;;19.01;33.38;100623.89;215493;1274;140631;-69
2022/04/30 11:14:54;;;;;;;2.60;1.80;;;;;;;18.99;33.17;100625.77;215675;1274;139815;-70
2022/04/30 11:19:57;;;;;;;0.80;0.80;;;;;;;18.96;32.43;100620.64;215935;1274;142515;-68
2022/04/30 11:24:59;;;;;;;1.60;1.30;;;;;;;18.98;32.32;100608.42;216015;1274;140281;-68
2022/04/30 11:30:04;;;;;;;1.10;1.00;;;;;;;19.04;32.58;100599.95;214630;1274;141624;-69
2022/04/30 11:35:08;;;;;;;3.70;2.10;;;;;;;19.21;32.99;100595.16;213676;1274;140495;-70
2022/04/30 11:40:11;;;;;;;2.30;1.60;;;;;;;19.28;32.83;100586.87;214926;1274;139654;-69
2022/04/30 11:45:24;;;;;;;1.40;1.40;;;;;;;19.32;32.36;100581.45;214519;1274;140522;-69
2022/04/30 11:50:28;;;;;;;2.20;1.50;;;;;;;19.27;32.67;100582.28;214052;1274;140178;-69
2022/04/30 11:55:31;;;;;;;4.30;1.70;;;;;;;19.18;32.52;100575.75;214050;1274;140391;-71
2022/04/30 12:06:35;;;;;;;2.30;1.40;;;;;;;19.12;32.32;100568.39;213624;1274;141116;-68
2022/04/30 12:11:51;;;;;;;3.00;1.50;;;;;;;19.03;32.17;100568.34;214146;1274;140668;-68
2022/04/30 12:16:57;;;;;;;5.10;1.50;;;;;;;18.96;32.32;100563.59;213460;1274;141356;-69
2022/04/30 12:27:28;;;;;;;2.10;1.90;;;;;;;19.24;32.16;100563.25;214580;1274;140714;-69
2022/04/30 12:32:35;;;;;;;3.30;1.70;;;;;;;19.35;31.67;100562.05;213845;1274;141156;-70
2022/04/30 12:37:40;;;;;;;2.10;1.60;;;;;;;19.44;32.02;100552.25;214234;1274;141495;-69
2022/04/30 12:42:44;;;;;;;2.20;2.00;;;;;;;19.70;32.38;100552.20;213424;1275;140972;-63
2022/04/30 12:47:51;;;;;;;5.30;2.10;;;;;;;19.74;32.52;100546.73;215777;1274;140661;-69
2022/04/30 12:52:55;;;;;;;3.40;2.10;;;;;;;19.72;31.78;100542.73;215557;1274;141188;-69
2022/04/30 12:57:59;;;;;;;3.50;2.40;;;;;;;19.69;31.71;100532.58;215400;1274;140122;-68
2022/04/30 13:03:02;;;;;;;2.80;1.80;;;;;;;19.53;31.82;100526.95;214145;1274;140842;-68
2022/04/30 13:08:06;;;;;;;3.80;2.00;;;;;;;19.50;32.12;100525.82;215837;1274;141340;-69
2022/04/30 13:18:29;;;;;;;2.20;2.00;;;;;;;18.99;33.24;100509.81;215128;1274;140929;-73
2022/04/30 13:23:32;;;;;;;2.40;1.90;;;;;;;18.81;33.15;100513.61;214350;1274;141276;-72
2022/04/30 13:28:34;;;;;;;3.20;2.10;;;;;;;18.73;33.50;100509.02;213758;1274;140485;-67
2022/04/30 13:33:41;;;;;;;6.30;2.90;;;;;;;18.72;33.12;100508.67;215679;1274;140197;-69
2022/04/30 13:38:47;;;;;;;2.30;1.80;;;;;;;18.59;32.44;100499.58;213339;1274;139779;-68
2022/04/30 13:43:51;;;;;;;4.30;2.50;;;;;;;18.53;32.61;100497.25;212938;1274;139820;-66
2022/04/30 13:48:54;;;;;;;3.10;2.10;;;;;;;18.55;32.85;100493.95;214053;1274;140711;-69
2022/04/30 13:54:00;;;;;;;4.00;2.30;;;;;;;18.55;33.72;100490.55;214433;1274;139723;-67
2022/04/30 13:59:07;;;;;;;9.20;2.00;;;;;;;18.56;33.58;100486.83;213748;1274;139927;-65
2022/04/30 14:04:10;;;;;;;5.10;2.10;;;;;;;18.46;33.36;100479.20;214242;1274;141224;-65
2022/04/30 14:09:13;;;;;;;2.30;1.80;;;;;;;18.30;33.34;100482.64;213814;1274;210045;-68
2022/04/30 14:19:37;;;;;;;2.00;1.90;;;;;;;18.50;33.36;100472.67;213229;1274;139561;-70
2022/04/30 14:24:40;;;;;;;3.50;2.30;;;;;;;18.63;33.06;100466.50;214723;1276;140143;-72
2022/04/30 14:29:47;;;;;;;1.80;1.70;;;;;;;18.84;33.49;100466.06;213250;1274;140575;-68
2022/04/30 14:34:50;;;;;;;2.50;2.30;;;;;;;19.05;33.05;100456.90;214618;1274;140432;-66
2022/04/30 14:39:54;;;;;;;2.50;2.10;;;;;;;19.12;33.04;100453.97;215712;1274;139985;-68
2022/04/30 14:44:58;;;;;;;2.20;1.60;;;;;;;19.14;32.83;100447.11;215524;1274;139450;-67
2022/04/30 14:50:05;;;;;;;3.70;2.50;;;;;;;19.10;33.32;100443.87;214142;1274;140352;-68
2022/04/30 14:55:07;;;;;;;3.40;2.00;;;;;;;18.95;32.88;100444.82;214445;1274;140579;-68
2022/04/30 15:00:10;;;;;;;7.10;2.10;;;;;;;18.89;32.88;100441.98;215928;1274;140547;-70
2022/04/30 15:05:12;;;;;;;4.10;2.60;;;;;;;18.95;32.44;100439.14;216171;1274;140716;-72
2022/04/30 15:10:14;;;;;;;4.80;2.80;;;;;;;18.88;32.36;100435.65;214469;1274;139918;-73
2022/04/30 15:15:17;;;;;;;5.60;2.60;;;;;;;18.77;32.64;100433.81;215530;1274;230448;-67
2022/04/30 15:20:20;;;;;;;4.00;2.50;;;;;;;18.67;32.95;100436.46;215867;1274;140871;-67
2022/04/30 15:25:24;;;;;;;3.40;2.60;;;;;;;18.71;32.98;100431.11;215370;1274;142105;-73
2022/04/30 15:30:27;;;;;;;5.20;2.90;;;;;;;18.65;32.68;100431.98;214768;1274;140384;-70
2022/04/30 15:35:30;;;;;;;3.30;3.00;;;;;;;18.46;32.53;100425.27;215009;1274;141126;-75
2022/04/30 15:40:33;;;;;;;3.40;2.70;;;;;;;18.34;32.76;100421.87;213594;1275;141029;-64
2022/04/30 15:45:39;;;;;;;3.00;1.80;;;;;;;18.20;32.45;100418.23;213642;1274;140508;-65
2022/04/30 15:56:05;;;;;;;3.80;2.20;;;;;;;17.83;32.83;100425.34;213887;1274;140177;-67
2022/04/30 16:01:09;;;;;;;6.50;1.90;;;;;;;17.65;32.71;100425.12;213899;1274;140750;-67
2022/04/30 16:06:11;;;;;;;5.30;1.90;;;;;;;17.48;32.61;100426.59;213638;1274;140148;-67
2022/04/30 16:11:14;;;;;;;2.10;1.90;;;;;;;17.34;32.51;100424.70;213917;1274;151613;-66
2022/04/30 16:16:16;;;;;;;2.10;1.90;;;;;;;17.19;32.57;100418.48;214649;1274;140162;-67
2022/04/30 16:21:18;;;;;;;2.50;2.30;;;;;;;17.08;32.76;100418.04;213689;1274;141536;-67
2022/04/30 16:26:21;;;;;;;2.30;1.80;;;;;;;16.92;32.78;100416.05;213449;1274;140247;-67
2022/04/30 16:31:23;;;;;;;5.10;1.90;;;;;;;16.71;32.85;100415.45;213507;1274;140179;-71
2022/04/30 16:36:25;;;;;;;4.30;2.10;;;;;;;16.50;33.13;100410.08;214033;1274;140367;-70
2022/04/30 16:41:28;;;;;;;3.10;2.80;;;;;;;16.27;33.52;100411.18;213596;1274;140626;-69
2022/04/30 16:46:33;;;;;;;2.00;1.80;;;;;;;16.07;33.82;100416.54;214786;1274;140638;-69
2022/04/30 16:57:07;;;;;;;6.00;2.20;;;;;;;15.70;34.38;100421.09;214369;1274;142049;-68
2022/04/30 17:02:14;;;;;;;3.90;2.10;;;;;;;15.52;34.64;100420.00;215953;1274;139913;-66
2022/04/30 17:07:17;;;;;;;2.60;2.20;;;;;;;15.38;35.11;100418.73;214369;1274;141172;-65
2022/04/30 17:12:20;;;;;;;2.70;2.00;;;;;;;15.22;35.35;100422.02;215032;1274;140410;-65
2022/04/30 17:17:28;;;;;;;2.50;1.90;;;;;;;15.10;35.59;100415.84;215610;1274;142232;-66
2022/04/30 17:22:34;;;;;;;2.30;2.00;;;;;;;15.01;36.13;100420.92;215452;1274;139937;-66
2022/04/30 17:27:41;;;;;;;3.00;2.60;;;;;;;14.89;36.28;100424.67;214262;1274;141175;-67
2022/04/30 17:38:04;;;;;;;4.50;3.10;;;;;;;14.62;36.88;100429.20;213114;1274;141753;-67
2022/04/30 17:43:08;;;;;;;4.10;2.90;;;;;;;14.48;37.24;100425.69;213570;1274;140225;-65
2022/04/30 17:48:13;;;;;;;8.00;3.00;;;;;;;14.32;37.69;100429.81;214212;1274;139802;-68
2022/04/30 17:53:16;;;;;;;6.70;3.70;;;;;;;14.17;38.30;100428.30;213107;1274;140346;-67
2022/04/30 17:58:20;;;;;;;4.80;3.10;;;;;;;14.00;38.69;100432.04;213514;1274;140702;-67
2022/04/30 18:03:28;;;;;;;3.90;3.50;;;;;;;13.83;39.29;100435.40;213335;1274;140222;-67
2022/04/30 18:08:31;;;;;;;8.90;4.10;;;;;;;13.67;40.00;100444.20;213806;1274;140280;-67
2022/04/30 18:13:34;;;;;;;5.90;3.80;;;;;;;13.48;40.30;100446.77;213366;1274;139868;-66
2022/04/30 18:18:39;;;;;;;4.80;3.40;;;;;;;13.31;40.87;100448.45;213938;1274;140631;-66
2022/04/30 18:23:42;;;;;;;9.50;4.00;;;;;;;13.15;41.44;100446.62;214079;1274;141455;-69
2022/04/30 18:28:48;;;;;;;4.70;4.30;;;;;;;12.97;42.21;100443.31;214586;1274;140391;-67
2022/04/30 18:33:52;;;;;;;14.90;6.90;;;;;;;12.79;42.49;100447.34;213036;1274;140027;-64
2022/04/30 18:38:55;;;;;;;13.50;5.20;;;;;;;12.58;43.08;100449.23;214168;1274;140582;-66
2022/04/30 18:44:01;;;;;;;8.70;5.40;;;;;;;12.39;43.82;100448.14;215516;1274;141690;-66
2022/04/30 18:49:05;;;;;;;8.20;4.80;;;;;;;12.23;43.97;100454.02;215269;1274;139727;-66
2022/04/30 19:04:51;;;;;;;11.10;5.90;;;;;;;11.81;45.99;100468.83;215977;1274;140188;-68
2022/04/30 19:09:54;;;;;;;10.50;5.70;;;;;;;11.66;46.64;100472.00;216059;1274;140984;-66
2022/04/30 19:14:59;;;;;;;12.00;6.30;;;;;;;11.46;47.14;100467.44;215748;1274;142275;-68
2022/04/30 19:20:02;;;;;;;11.20;7.90;;;;;;;11.32;47.60;100466.44;214702;1274;140367;-66
2022/04/30 19:25:07;;;;;;;25.50;9.20;;;;;;;11.16;47.89;100463.81;215393;1274;140281;-67
2022/04/30 19:30:11;;;;;;;27.70;9.10;;;;;;;11.01;48.00;100467.52;214885;1274;142465;-67
2022/04/30 19:35:16;;;;;;;15.90;8.50;;;;;;;10.86;48.57;100471.07;214861;1274;139773;-67
2022/04/30 19:40:19;;;;;;;15.10;9.10;;;;;;;10.68;48.77;100468.23;213354;1274;140873;-64
2022/04/30 19:45:23;;;;;;;13.70;6.90;;;;;;;10.48;49.57;100467.92;213979;1274;139905;-66
2022/04/30 19:50:27;;;;;;;15.20;7.90;;;;;;;10.24;50.01;100466.72;213698;1274;452155;-66
2022/04/30 19:55:30;;;;;;;16.60;8.20;;;;;;;9.99;50.36;100465.65;213978;1274;141776;-65
2022/04/30 20:00:33;;;;;;;13.30;8.20;;;;;;;9.73;50.50;100463.15;214404;1274;140484;-66
2022/04/30 20:05:38;;;;;;;12.00;8.20;;;;;;;9.53;50.81;100465.08;213314;1276;141032;-67
2022/04/30 20:21:31;;;;;;;12.40;7.20;;;;;;;9.07;53.00;100472.92;214109;1276;140045;-66
2022/04/30 20:26:36;;;;;;;9.60;6.90;;;;;;;8.91;53.01;100472.44;213400;1274;140410;-66
2022/04/30 20:37:02;;;;;;;9.50;6.80;;;;;;;8.53;54.20;100469.75;213362;1274;141068;-62
2022/04/30 20:42:05;;;;;;;14.20;8.70;;;;;;;8.35;54.64;100463.75;214597;1274;139598;-68
2022/04/30 20:47:10;;;;;;;28.50;8.10;;;;;;;8.19;54.76;100463.75;215280;1274;140032;-66
2022/04/30 20:52:14;;;;;;;15.80;7.80;;;;;;;7.91;54.59;100462.08;214977;1274;142642;-66
2022/04/30 20:57:19;;;;;;;10.80;7.20;;;;;;;7.57;55.08;100461.63;214991;1274;139552;-66
2022/04/30 21:02:22;;;;;;;11.90;8.60;;;;;;;7.41;56.10;100460.92;214675;1274;139738;-66
2022/04/30 21:07:26;;;;;;;11.90;9.00;;;;;;;7.36;56.58;100458.20;215193;1274;139817;-65
2022/04/30 21:12:29;;;;;;;18.40;10.20;;;;;;;7.32;57.47;100461.67;215142;1274;140366;-68
2022/04/30 21:17:33;;;;;;;13.80;8.30;;;;;;;7.24;57.65;100463.91;215387;1274;140338;-67
2022/04/30 21:22:37;;;;;;;13.50;7.40;;;;;;;7.04;57.79;100463.73;215455;1274;140041;-67
2022/04/30 21:27:39;;;;;;;17.00;10.00;;;;;;;6.78;58.14;100458.41;214763;1274;141686;-65
2022/04/30 21:32:41;;;;;;;16.00;10.60;;;;;;;6.58;59.17;100461.23;214735;1273;140514;-67
2022/04/30 21:37:45;;;;;;;20.00;12.30;;;;;;;6.48;59.45;100458.52;215118;1274;140664;-66
2022/04/30 21:42:48;;;;;;;22.60;10.50;;;;;;;6.29;59.67;100462.06;213326;1274;141962;-65
2022/04/30 21:47:51;;;;;;;20.90;12.70;;;;;;;6.07;60.13;100458.86;213821;1274;141652;-65
2022/04/30 21:52:57;;;;;;;21.40;13.10;;;;;;;5.89;60.50;100461.21;214138;1274;140246;-66
2022/04/30 22:03:23;;;;;;;30.40;15.20;;;;;;;5.86;61.31;100470.14;213812;1274;140800;-65
2022/04/30 22:08:26;;;;;;;30.30;17.70;;;;;;;5.78;61.61;100470.26;214191;1274;141547;-66
2022/04/30 22:13:35;;;;;;;27.90;16.20;;;;;;;5.73;61.38;100470.35;213967;1274;141248;-66
2022/04/30 22:18:42;;;;;;;35.20;18.80;;;;;;;5.63;61.95;100463.06;213882;1274;142648;-67
2022/04/30 22:23:46;;;;;;;31.10;19.10;;;;;;;5.61;62.39;100463.02;214367;1274;142722;-67
2022/04/30 22:28:49;;;;;;;27.60;17.20;;;;;;;5.59;62.64;100461.78;213341;1274;141514;-67
2022/04/30 22:33:53;;;;;;;34.40;17.10;;;;;;;5.55;62.71;100459.45;215068;1274;141253;-67
2022/04/30 22:38:55;;;;;;;19.60;13.10;;;;;;;5.52;63.00;100455.92;214995;1274;142142;-70
2022/04/30 22:43:57;;;;;;;24.10;16.10;;;;;;;5.41;62.92;100453.19;214927;1274;141035;-66
2022/04/30 22:49:16;;;;;;;19.20;12.20;;;;;;;5.22;63.02;100454.83;214079;1274;141170;-65
2022/04/30 22:54:21;;;;;;;30.20;17.00;;;;;;;5.08;63.46;100449.27;215825;1274;140317;-66
2022/04/30 22:59:40;;;;;;;24.20;14.10;;;;;;;5.07;63.80;100444.91;216020;1274;141949;-67
2022/04/30 23:04:46;;;;;;;25.60;14.30;;;;;;;5.05;64.10;100442.52;216181;1274;140571;-67
2022/04/30 23:09:50;;;;;;;21.40;12.30;;;;;;;5.02;64.15;100444.80;215773;1274;141943;-69
2022/04/30 23:14:53;;;;;;;28.50;14.50;;;;;;;4.96;64.14;100442.58;214937;1274;141550;-66
2022/04/30 23:19:58;;;;;;;21.60;15.20;;;;;;;4.84;64.15;100442.63;215000;1274;140399;-66
2022/04/30 23:25:02;;;;;;;24.80;15.40;;;;;;;4.68;64.26;100439.23;214214;1274;141334;-66
2022/04/30 23:30:09;;;;;;;29.60;19.30;;;;;;;4.52;64.75;100439.67;214921;1274;141872;-66
2022/04/30 23:35:16;;;;;;;35.70;21.40;;;;;;;4.47;65.18;100441.58;214450;1274;140729;-66
2022/04/30 23:40:19;;;;;;;32.60;20.00;;;;;;;4.34;65.55;100439.85;213912;1274;142157;-66
2022/04/30 23:45:22;;;;;;;36.20;23.20;;;;;;;4.21;65.85;100435.01;214143;1274;139807;-66
2022/04/30 23:50:25;;;;;;;39.10;26.00;;;;;;;4.14;66.08;100434.80;213902;1275;141449;-65
2022/04/30 23:55:32;;;;;;;36.80;25.00;;;;;;;4.13;66.63;100439.61;214024;1274;140160;-66
